Time;durP1;ratioP1;P1;durP2;ratioP2;P2;SDS_P1;SDS_P2;PMS_P1;PMS_P2;Temp;Humidity;BMP_temperature;BMP_pressure;BME280_temperature;BME280_humidity;BME280_pressure;Samples;Min_cycle;Max_cycle;Signal;HPM_P1;HPM_P2
2021/06/01 00:01:29;;;;;;;2.97;2.67;;;;;;;;;;5092355;28;20531;-73
2021/06/01 00:03:56;;;;;;;3.10;2.80;;;;;;;;;;5092565;28;20994;-71
2021/06/01 00:06:23;;;;;;;3.00;2.80;;;;;;;;;;5091671;28;20444;-72
2021/06/01 00:08:49;;;;;;;4.53;2.80;;;;;;;;;;5091638;28;20543;-72
2021/06/01 00:11:16;;;;;;;4.00;3.17;;;;;;;;;;5092024;28;20445;-71
2021/06/01 00:13:44;;;;;;;3.40;2.83;;;;;;;;;;5092571;28;20534;-72
2021/06/01 00:16:11;;;;;;;2.80;2.60;;;;;;;;;;5091933;28;20448;-72
2021/06/01 00:27:21;;;;;;;3.23;2.97;;;;;;;;;;4971838;22;20502;-78
2021/06/01 00:29:49;;;;;;;2.57;2.37;;;;;;;;;;5052595;28;20507;-78
2021/06/01 00:32:16;;;;;;;2.87;2.67;;;;;;;;;;5052004;28;20583;-78
2021/06/01 00:34:43;;;;;;;3.70;3.17;;;;;;;;;;5051735;28;20453;-78
2021/06/01 00:37:09;;;;;;;3.90;3.07;;;;;;;;;;5050296;28;20525;-78
2021/06/01 00:39:36;;;;;;;4.83;2.50;;;;;;;;;;5051407;28;20450;-78
2021/06/01 00:42:03;;;;;;;3.80;3.10;;;;;;;;;;5050566;28;20476;-78
2021/06/01 00:44:29;;;;;;;3.63;3.33;;;;;;;;;;5051355;28;20589;-78
2021/06/01 00:46:58;;;;;;;6.20;3.47;;;;;;;;;;5050321;28;20532;-78
2021/06/01 00:49:24;;;;;;;3.70;3.00;;;;;;;;;;5051421;28;20534;-78
2021/06/01 00:51:52;;;;;;;3.67;3.20;;;;;;;;;;5050495;28;20485;-77
2021/06/01 00:54:19;;;;;;;5.43;5.03;;;;;;;;;;5051000;28;20455;-77
2021/06/01 00:56:46;;;;;;;4.17;3.33;;;;;;;;;;5050704;28;20447;-78
2021/06/01 00:59:14;;;;;;;3.37;2.80;;;;;;;;;;5050466;28;20486;-78
2021/06/01 01:01:41;;;;;;;3.13;2.83;;;;;;;;;;5051006;28;20537;-78
2021/06/01 01:04:08;;;;;;;5.17;4.03;;;12.70;99.90;;;;;;5050230;28;20486;-78
2021/06/01 01:06:44;;;;;;;4.70;3.60;;;10.40;1.00;;;;;;5050526;28;20457;-77
2021/06/01 01:52:01;;;;;;;4.27;3.33;;;9.70;21.00;;;;;;5290507;22;20832;-77
2021/06/01 01:54:30;;;;;;;7.37;3.50;;;9.70;70.90;;;;;;5063248;28;20846;-78
2021/06/01 01:57:07;;;;;;;4.00;3.60;;;9.80;19.60;;;;;;5063363;28;20456;-77
2021/06/01 01:59:34;;;;;;;4.83;4.03;;;9.70;93.50;;;;;;5037212;28;20485;-77
2021/06/01 02:02:01;;;;;;;4.13;3.50;;;9.60;90.80;;;;;;5049519;28;20867;-76
2021/06/01 02:04:29;;;;;;;6.33;3.67;;;9.50;99.90;;;;;;5070258;28;20721;-78
2021/06/01 02:06:57;;;;;;;4.43;3.50;;;9.40;99.90;;;;;;5070592;28;20476;-78
2021/06/01 02:09:25;;;;;;;3.97;3.57;;;9.40;99.90;;;;;;5065107;28;20542;-77
2021/06/01 02:11:51;;;;;;;4.17;3.77;;;9.40;99.90;;;;;;5049876;28;20533;-78
2021/06/01 02:14:18;;;;;;;3.90;3.40;;;9.40;99.90;;;;;;5049653;28;20547;-78
2021/06/01 02:16:45;;;;;;;3.90;3.33;;;9.50;99.90;;;;;;5050573;28;20525;-78
2021/06/01 02:19:13;;;;;;;5.30;3.47;;;9.50;99.90;;;;;;5050060;28;20470;-79
2021/06/01 02:22:01;;;;;;;3.73;3.17;;;9.60;99.90;;;;;;5050331;28;20949;-77
2021/06/01 02:24:34;;;;;;;3.60;3.30;;;9.50;99.90;;;;;;5050456;28;20517;-78
2021/06/01 02:27:10;;;;;;;5.30;4.50;;;9.40;99.90;;;;;;5049712;28;20453;-76
2021/06/01 02:29:43;;;;;;;3.50;3.20;;;9.20;99.90;;;;;;5050351;28;20538;-77
2021/06/01 02:32:12;;;;;;;5.23;3.30;;;9.30;99.90;;;;;;5050760;28;20462;-77
2021/06/01 02:34:40;;;;;;;4.10;3.53;;;9.40;99.90;;;;;;5053979;28;20496;-80
2021/06/01 02:37:09;;;;;;;3.30;3.00;;;9.50;99.90;;;;;;5052835;28;20480;-77
2021/06/01 02:39:37;;;;;;;3.77;3.37;;;9.40;99.90;;;;;;5053955;28;20446;-78
2021/06/01 02:42:05;;;;;;;4.10;3.27;;;9.50;99.90;;;;;;5052561;28;20996;-77
2021/06/01 02:44:34;;;;;;;4.00;3.60;;;9.30;99.90;;;;;;5053898;28;20517;-77
2021/06/01 02:47:05;;;;;;;4.33;3.93;;;9.40;99.90;;;;;;5053200;28;20468;-76
2021/06/01 02:49:32;;;;;;;4.67;3.67;;;9.30;99.90;;;;;;5053881;28;20865;-77
2021/06/01 02:51:59;;;;;;;4.60;3.53;;;9.20;99.90;;;;;;5052744;28;20533;-76
2021/06/01 02:54:27;;;;;;;4.20;3.80;;;9.10;99.90;;;;;;5052714;28;20587;-77
2021/06/01 02:56:55;;;;;;;5.70;3.63;;;9.00;99.90;;;;;;5068009;28;20488;-77
2021/06/01 02:59:22;;;;;;;4.07;3.67;;;9.00;99.90;;;;;;5072434;28;20476;-77
2021/06/01 03:01:49;;;;;;;4.83;4.23;;;9.00;99.90;;;;;;5058181;28;20548;-77
2021/06/01 03:04:16;;;;;;;4.53;4.13;;;9.20;99.90;;;;;;5052572;28;20565;-77
2021/06/01 03:06:43;;;;;;;6.70;4.40;;;9.40;99.90;;;;;;5053833;28;20451;-77
2021/06/01 03:09:10;;;;;;;5.83;3.50;;;9.40;99.90;;;;;;5052749;28;20508;-78
2021/06/01 03:11:37;;;;;;;4.17;3.77;;;9.40;98.30;;;;;;5053421;28;20447;-77
2021/06/01 03:14:05;;;;;;;4.20;3.80;;;9.20;99.90;;;;;;5052715;28;20798;-77
2021/06/01 03:16:31;;;;;;;4.27;3.80;;;9.10;99.90;;;;;;5053238;28;20529;-78
2021/06/01 03:18:57;;;;;;;3.40;2.80;;;9.10;99.90;;;;;;5053149;28;20446;-78
2021/06/01 03:21:24;;;;;;;4.03;3.63;;;9.10;99.90;;;;;;5052522;28;20576;-78
2021/06/01 03:23:52;;;;;;;3.90;3.50;;;9.00;99.90;;;;;;5052779;28;20498;-78
2021/06/01 03:26:19;;;;;;;4.10;3.77;;;9.00;99.90;;;;;;5052192;28;21140;-78
2021/06/01 03:28:45;;;;;;;4.40;3.33;;;9.20;99.90;;;;;;5062708;28;20477;-78
2021/06/01 03:31:13;;;;;;;4.80;4.10;;;9.40;99.90;;;;;;5072298;28;20464;-78
2021/06/01 03:33:40;;;;;;;5.70;3.83;;;9.50;83.00;;;;;;5072931;28;20441;-78
2021/06/01 03:36:07;;;;;;;7.33;3.70;;;9.30;99.90;;;;;;5055155;28;20804;-78
2021/06/01 03:38:35;;;;;;;4.03;3.63;;;9.10;99.90;;;;;;5052814;28;20450;-78
2021/06/01 03:41:02;;;;;;;4.13;3.73;;;9.00;99.90;;;;;;5052206;28;20454;-77
2021/06/01 03:43:29;;;;;;;4.07;3.67;;;9.00;99.90;;;;;;5051193;28;20572;-78
2021/06/01 03:45:55;;;;;;;5.30;3.97;;;8.80;99.90;;;;;;5052785;28;20486;-78
2021/06/01 03:48:23;;;;;;;5.83;3.73;;;9.00;99.90;;;;;;5051624;28;20446;-78
2021/06/01 03:50:49;;;;;;;4.90;3.80;;;9.00;99.90;;;;;;5052242;28;20446;-78
2021/06/01 03:53:16;;;;;;;4.70;3.90;;;8.90;99.90;;;;;;5050963;28;20476;-78
2021/06/01 03:55:42;;;;;;;4.77;3.97;;;8.70;99.90;;;;;;5052743;28;20524;-78
2021/06/01 03:58:09;;;;;;;4.40;3.67;;;8.80;99.90;;;;;;5051688;28;20608;-78
2021/06/01 04:00:36;;;;;;;4.03;3.63;;;8.70;99.90;;;;;;5052241;28;20454;-78
2021/06/01 04:03:02;;;;;;;6.97;3.80;;;8.70;99.90;;;;;;5051532;28;20447;-77
2021/06/01 04:05:30;;;;;;;8.30;4.33;;;8.80;99.90;;;;;;5052304;28;20541;-78
2021/06/01 04:07:56;;;;;;;4.73;3.40;;;8.80;99.90;;;;;;5052569;28;20525;-79
2021/06/01 04:10:23;;;;;;;5.40;4.10;;;8.70;99.90;;;;;;5051201;28;20449;-78
2021/06/01 04:12:49;;;;;;;4.83;3.80;;;8.80;99.90;;;;;;5052061;28;20529;-79
2021/06/01 04:15:16;;;;;;;4.20;3.37;;;8.80;99.90;;;;;;5051320;28;20489;-78
2021/06/01 04:17:42;;;;;;;4.53;4.13;;;8.90;99.90;;;;;;5052247;28;20993;-77
2021/06/01 04:20:10;;;;;;;8.63;3.80;;;8.90;99.90;;;;;;5051921;28;20549;-78
2021/06/01 04:22:37;;;;;;;4.77;3.60;;;9.00;99.90;;;;;;5051830;28;20458;-78
2021/06/01 04:25:07;;;;;;;4.30;3.93;;;8.90;99.90;;;;;;5051376;28;20533;-77
2021/06/01 04:27:33;;;;;;;7.60;3.43;;;9.00;99.90;;;;;;5051880;28;20446;-77
2021/06/01 04:30:00;;;;;;;4.60;3.67;;;9.20;99.90;;;;;;5051560;28;20537;-77
2021/06/01 04:32:26;;;;;;;8.10;4.40;;;9.30;99.90;;;;;;5051073;28;20453;-77
2021/06/01 04:34:55;;;;;;;5.70;4.40;;;9.40;99.90;;;;;;5051640;28;20516;-78
2021/06/01 04:37:21;;;;;;;4.03;3.73;;;9.30;99.90;;;;;;5050954;28;20456;-78
2021/06/01 04:39:49;;;;;;;4.90;3.50;;;9.20;99.90;;;;;;5051354;28;20457;-77
2021/06/01 04:42:15;;;;;;;5.43;3.60;;;9.20;99.90;;;;;;5050647;28;20525;-77
2021/06/01 04:44:42;;;;;;;3.33;3.00;;;9.30;99.90;;;;;;5051831;28;20489;-78
2021/06/01 04:47:09;;;;;;;5.00;3.70;;;9.30;99.90;;;;;;5050683;28;20452;-79
2021/06/01 04:49:35;;;;;;;4.33;3.33;;;9.50;99.90;;;;;;5051274;28;20554;-79
2021/06/01 04:52:02;;;;;;;3.87;3.47;;;9.60;97.30;;;;;;5050476;28;20450;-77
2021/06/01 04:54:28;;;;;;;4.93;3.47;;;9.90;1.00;;;;;;5051001;28;20777;-78
2021/06/01 04:56:56;;;;;;;5.57;4.10;;;9.90;1.00;;;;;;5051369;28;20442;-78
2021/06/01 04:59:22;;;;;;;4.40;3.57;;;10.10;1.00;;;;;;5050622;28;20521;-78
2021/06/01 05:01:49;;;;;;;3.60;3.30;;;10.10;1.00;;;;;;5050709;28;20974;-78
2021/06/01 05:04:15;;;;;;;4.30;3.83;;;10.10;1.00;;;;;;5050570;28;20532;-77
2021/06/01 05:06:41;;;;;;;6.00;3.27;;;10.20;1.00;;;;;;5051149;28;20489;-78
2021/06/01 05:09:08;;;;;;;4.03;3.40;;;10.40;1.00;;;;;;5058972;28;20915;-78
2021/06/01 05:11:35;;;;;;;4.23;3.83;;;;;;;;;;5070787;28;20504;-78
2021/06/01 05:14:06;;;;;;;3.97;3.13;;;;;;;;;;5071338;28;20464;-78
2021/06/01 05:16:35;;;;;;;5.00;4.17;;;;;;;;;;5071370;28;20524;-78
2021/06/01 05:19:01;;;;;;;5.93;3.77;;;;;;;;;;5070702;28;20544;-77
2021/06/01 05:21:28;;;;;;;5.73;4.07;;;;;;;;;;5070680;28;20473;-78
2021/06/01 05:23:55;;;;;;;5.43;3.87;;;;;;;;;;5070842;28;20485;-78
2021/06/01 05:26:21;;;;;;;4.00;3.60;;;;;;;;;;5069993;28;20449;-79
2021/06/01 05:28:48;;;;;;;4.70;3.93;;;;;;;;;;5070671;28;20441;-78
2021/06/01 05:31:19;;;;;;;3.80;3.50;;;;;;;;;;5070669;28;20453;-78
2021/06/01 05:33:50;;;;;;;4.20;3.80;;;;;;;;;;5070858;28;20532;-78
2021/06/01 05:36:17;;;;;;;6.73;3.60;;;;;;;;;;5070419;28;20441;-78
2021/06/01 05:38:44;;;;;;;4.57;3.53;;;;;;;;;;5070985;28;20532;-78
2021/06/01 05:41:10;;;;;;;8.03;3.40;;;;;;;;;;5070138;28;21011;-78
2021/06/01 05:43:38;;;;;;;4.50;3.30;;;;;;;;;;5070412;28;20550;-77
2021/06/01 05:46:05;;;;;;;4.57;4.17;;;;;;;;;;5070328;28;20868;-78
2021/06/01 05:48:33;;;;;;;4.47;4.07;;;;;;;;;;5070899;28;20480;-78
2021/06/01 05:50:59;;;;;;;6.63;4.40;;;;;;;;;;5070716;28;20449;-78
2021/06/01 05:53:26;;;;;;;4.07;3.60;;;;;;;;;;5056681;28;20576;-78
2021/06/01 05:55:53;;;;;;;4.93;3.63;;;;;;;;;;5050785;28;20446;-78
2021/06/01 05:58:21;;;;;;;4.63;3.57;;;;;;;;;;5049586;28;20453;-78
2021/06/01 06:00:47;;;;;;;4.63;4.03;;;;;;;;;;5050502;28;20508;-78
2021/06/01 06:03:15;;;;;;;4.30;3.90;;;;;;;;;;5049659;28;20454;-78
2021/06/01 06:05:44;;;;;;;4.50;4.10;;;;;;;;;;5050750;28;20454;-78
2021/06/01 06:08:13;;;;;;;4.40;4.00;;;;;;;;;;5053233;28;20526;-78
2021/06/01 06:10:40;;;;;;;4.63;4.23;;;;;;;;;;5054854;28;20447;-78
2021/06/01 06:13:07;;;;;;;7.63;4.47;;;;;;;;;;5053231;28;20533;-78
2021/06/01 06:15:34;;;;;;;6.07;4.93;;;;;;;;;;5054616;28;20468;-78
2021/06/01 06:18:07;;;;;;;5.07;3.60;;;;;;;;;;5068963;28;20441;-78
2021/06/01 06:20:34;;;;;;;5.27;4.30;;;;;;;;;;5074319;28;20532;-78
2021/06/01 06:23:02;;;;;;;5.13;4.30;;;;;;;;;;5073748;28;20457;-78
2021/06/01 06:25:29;;;;;;;6.77;3.83;;;;;;;;;;5073564;28;20544;-78
2021/06/01 06:27:56;;;;;;;5.90;3.90;;;;;;;;;;5074132;28;20489;-78
2021/06/01 06:30:23;;;;;;;6.97;3.77;;;;;;;;;;5073247;28;20450;-78
2021/06/01 06:32:49;;;;;;;8.83;4.37;;;;;;;;;;5074112;28;20544;-78
2021/06/01 06:35:16;;;;;;;8.20;3.80;;;;;;;;;;5073316;28;20533;-78
2021/06/01 06:37:43;;;;;;;5.90;3.80;;;;;;;;;;5073892;28;20501;-78
2021/06/01 06:40:11;;;;;;;4.40;3.40;;;;;;;;;;5073387;28;20491;-78
2021/06/01 06:42:38;;;;;;;3.83;2.87;;;;;;;;;;5073666;28;20477;-78
2021/06/01 06:45:05;;;;;;;3.80;3.33;;;;;;;;;;5073043;28;21305;-77
2021/06/01 06:47:42;;;;;;;4.00;3.10;;;;;;;;;;5074128;28;20531;-78
2021/06/01 06:50:11;;;;;;;5.90;3.83;;;;;;;;;;5072900;28;20453;-78
2021/06/01 06:52:38;;;;;;;6.70;3.30;;;;;;;;;;5067370;28;20886;-78
2021/06/01 06:55:05;;;;;;;2.87;2.50;;;;;;;;;;5052070;28;20446;-78
2021/06/01 06:57:33;;;;;;;3.87;3.00;;;;;;;;;;5052603;28;20572;-78
2021/06/01 06:59:59;;;;;;;7.70;3.60;;;;;;;;;;5052601;28;20442;-77
2021/06/01 07:02:27;;;;;;;6.83;4.77;;;;;;;;;;5051159;28;20598;-78
2021/06/01 07:04:54;;;;;;;4.63;3.03;;;;;;;;;;5052312;28;20505;-77
2021/06/01 07:07:20;;;;;;;3.97;2.93;;;;;;;;;;5051675;28;20478;-78
2021/06/01 07:09:47;;;;;;;3.17;2.90;;;;;;;;;;5052200;28;20584;-77
2021/06/01 07:12:14;;;;;;;2.50;2.30;;;;;;;;;;5051321;28;20543;-77
2021/06/01 07:14:46;;;;;;;2.73;2.50;;;;;;;;;;5052042;28;20542;-79
2021/06/01 07:17:13;;;;;;;2.63;2.43;;;;;;;;;;5051323;28;20446;-79
2021/06/01 07:19:40;;;;;;;3.43;2.37;;;;;;;;;;5052037;28;20934;-78
2021/06/01 07:22:07;;;;;;;3.23;2.97;;;;;;;;;;5051161;28;20603;-78
2021/06/01 07:24:33;;;;;;;2.93;2.63;;;;;;;;;;5051702;28;20581;-79
2021/06/01 07:27:01;;;;;;;2.77;2.57;;;;;;;;;;5052215;28;20458;-79
2021/06/01 07:29:28;;;;;;;3.43;3.00;;;;;;;;;;5051391;28;20911;-77
2021/06/01 07:31:56;;;;;;;2.70;2.47;;;;;;;;;;5051788;28;20465;-78
2021/06/01 07:34:23;;;;;;;4.17;2.53;;;;;;;;;;5050885;28;21023;-78
2021/06/01 07:36:50;;;;;;;2.20;2.00;;;;;;;;;;5051918;28;20508;-78
2021/06/01 07:39:17;;;;;;;2.40;2.20;;;;;;;;;;5050886;28;20457;-78
2021/06/01 07:41:43;;;;;;;3.17;2.23;;;;;;;;;;5051838;28;20530;-78
2021/06/01 07:44:10;;;;;;;4.13;2.60;;;;;;;;;;5051036;28;20508;-78
2021/06/01 07:46:37;;;;;;;4.30;2.73;;;;;;;;;;5051808;28;20876;-78
2021/06/01 07:49:09;;;;;;;3.63;2.83;;;;;;;;;;5051471;28;20554;-78
2021/06/01 07:51:36;;;;;;;3.03;2.70;;;;;;;;;;5051442;28;20454;-78
2021/06/01 07:54:04;;;;;;;3.40;3.03;;;;;;;;;;5010070;28;1213595;-78
2021/06/01 07:56:31;;;;;;;3.87;2.47;;;;;;;;;;5052677;28;20246;-78
2021/06/01 07:58:57;;;;;;;4.80;2.07;;;;;;;;;;5052442;28;20474;-78
2021/06/01 08:01:24;;;;;;;4.80;2.30;;;;;;;;;;5051351;28;20749;-78
2021/06/01 08:03:51;;;;;;;3.80;3.20;;;;;;;;;;5052171;28;21053;-77
2021/06/01 08:06:19;;;;;;;2.63;2.10;;;;;;;;;;5051475;28;20985;-78
2021/06/01 08:08:46;;;;;;;4.10;2.13;;;;;;;;;;5052674;28;20455;-78
2021/06/01 08:11:13;;;;;;;3.70;2.70;;;;;;;;;;5051426;28;20442;-78
2021/06/01 08:13:39;;;;;;;2.80;2.57;;;;;;;;;;5051914;28;20558;-78
2021/06/01 08:16:06;;;;;;;5.43;3.10;;;;;;;;;;5052068;28;20478;-78
2021/06/01 08:18:37;;;;;;;3.00;2.33;;;;;;;;;;5052218;28;20450;-78
2021/06/01 08:21:08;;;;;;;2.60;2.40;;;;;;;;;;5052317;28;20529;-79
2021/06/01 08:23:36;;;;;;;4.80;2.20;;;;;;;;;;5051713;28;20458;-78
2021/06/01 08:26:03;;;;;;;3.57;2.60;;;;;;;;;;5051703;28;20442;-78
2021/06/01 08:28:29;;;;;;;3.80;2.80;;;;;;;;;;5050932;28;20478;-78
2021/06/01 08:30:56;;;;;;;3.87;3.00;;;;;;;;;;5051501;28;20446;-78
2021/06/01 08:33:23;;;;;;;3.20;2.67;;;;;;;;;;5050971;28;20478;-78
2021/06/01 08:35:50;;;;;;;2.90;2.13;;;;;;;;;;5065487;28;20525;-77
2021/06/01 08:38:18;;;;;;;3.40;3.10;;;;;;;;;;5070686;28;20456;-77
2021/06/01 08:40:50;;;;;;;2.70;2.10;;;;;;;;;;5071369;28;20477;-77
2021/06/01 08:43:18;;;;;;;3.80;2.70;;;;;;;;;;5051088;28;20451;-77
2021/06/01 08:45:49;;;;;;;3.07;2.50;;;;;;;;;;5051965;28;20474;-77
2021/06/01 08:48:17;;;;;;;2.63;2.40;;;;;;;;;;5051120;28;20446;-78
2021/06/01 08:50:45;;;;;;;3.13;2.33;;;;;;;;;;5051521;28;20929;-77
2021/06/01 08:53:12;;;;;;;3.87;2.43;;;;;;;;;;5050598;28;20559;-78
2021/06/01 08:55:39;;;;;;;2.60;2.40;;;;;;;;;;5051468;28;20830;-79
2021/06/01 08:58:12;;;;;;;3.77;2.50;;;;;;;;;;5051376;28;20573;-78
2021/06/01 09:00:39;;;;;;;3.40;2.20;;;;;;;;;;5051213;28;20461;-78
2021/06/01 09:03:06;;;;;;;2.10;2.00;;;;;;;;;;5051121;28;20589;-79
2021/06/01 09:05:33;;;;;;;3.87;2.83;;;;;;;;;;5050827;28;20478;-79
2021/06/01 09:08:03;;;;;;;2.47;2.27;;;;;;;;;;5051950;28;20446;-78
2021/06/01 09:10:38;;;;;;;3.77;2.47;;;;;;;;;;5051596;28;20504;-77
2021/06/01 09:21:42;;;;;;;2.70;2.17;;;;;;;;;;5050778;28;20449;-78
2021/06/01 09:24:09;;;;;;;4.40;2.17;;;;;;;;;;5050174;28;20486;-77
2021/06/01 09:26:41;;;;;;;2.50;2.30;;;;;;;;;;5054475;28;20442;-78
2021/06/01 09:29:07;;;;;;;4.10;2.63;;;;;;;;;;5070372;28;20510;-77
2021/06/01 09:31:36;;;;;;;2.63;2.23;;;;;;;;;;5070502;28;20885;-77
2021/06/01 09:34:02;;;;;;;2.53;1.80;;;;;;;;;;5070945;28;20848;-78
2021/06/01 09:36:29;;;;;;;2.77;2.13;;;;;;;;;;5070105;28;20481;-78
2021/06/01 09:38:56;;;;;;;2.23;2.00;;;;;;;;;;5071115;28;20445;-78
2021/06/01 09:41:26;;;;;;;2.10;1.90;;;;;;;;;;5068414;28;20445;-77
2021/06/01 09:43:54;;;;;;;2.50;2.30;;;;;;;;;;5070901;28;20572;-77
2021/06/01 09:46:21;;;;;;;6.53;3.00;;;;;;;;;;5069767;28;20545;-77
2021/06/01 09:48:50;;;;;;;2.53;2.13;;;;;;;;;;5070949;28;20472;-77
2021/06/01 09:51:27;;;;;;;2.20;2.00;;;;;;;;;;5069757;28;20445;-77
2021/06/01 09:53:56;;;;;;;4.03;2.40;;;;;;;;;;5053872;28;20485;-77
2021/06/01 09:56:23;;;;;;;5.43;2.50;;;;;;;;;;5049922;28;20450;-77
2021/06/01 09:58:50;;;;;;;2.20;2.10;;;;;;;;;;5050650;28;20874;-77
2021/06/01 10:01:17;;;;;;;2.83;2.10;;;;;;;;;;5049185;28;20461;-77
2021/06/01 10:03:46;;;;;;;2.50;2.17;;;;;;;;;;5050469;28;20934;-78
2021/06/01 10:06:14;;;;;;;2.80;1.87;;;;;;;;;;5049829;28;20474;-77
2021/06/01 10:08:42;;;;;;;2.60;2.40;;;;;;;;;;5054940;28;20542;-77
2021/06/01 10:11:10;;;;;;;3.10;2.73;;;;;;;;;;5069542;28;20536;-77
2021/06/01 10:13:38;;;;;;;4.93;3.30;;;;;;;;;;5070616;28;20449;-78
2021/06/01 10:16:06;;;;;;;2.63;2.50;;;;;;;;;;5070754;28;20449;-78
2021/06/01 10:18:33;;;;;;;2.60;2.40;;;;;;;;;;5069768;28;20442;-77
2021/06/01 10:21:01;;;;;;;2.70;2.17;;;;;;;;;;5070068;28;20481;-78
2021/06/01 10:23:31;;;;;;;2.30;2.10;;;;;;;;;;5069798;28;21042;-78
2021/06/01 10:25:58;;;;;;;2.57;1.90;;;;;;;;;;5070874;28;20473;-77
2021/06/01 10:28:27;;;;;;;2.60;2.40;;;;;;;;;;5069869;28;20528;-78
2021/06/01 10:30:56;;;;;;;4.53;2.30;;;;;;;;;;5070497;28;20461;-78
2021/06/01 10:33:22;;;;;;;5.77;2.70;;;;;;;;;;5069570;28;20450;-78
2021/06/01 10:36:00;;;;;;;2.37;2.17;;;;;;;;;;5070722;28;20496;-78
2021/06/01 10:44:26;;;;;;;2.90;2.27;;;;;;;;;;5070152;28;20818;-78
2021/06/01 10:52:32;;;;;;;3.00;2.67;;;;;;;;;;5064625;28;20554;-83
2021/06/01 10:55:16;;;;;;;3.30;2.53;;;;;;;;;;5053967;28;20540;-83
2021/06/01 10:57:58;;;;;;;2.93;2.73;;;;;;;;;;5054517;28;20477;-83
2021/06/01 11:03:14;;;;;;;2.10;2.00;;;;;;;;;;5052546;28;20422;-78
2021/06/01 11:06:03;;;;;;;2.37;2.10;;;;;;;;;;5053715;28;20814;-79
2021/06/01 11:08:42;;;;;;;3.30;3.00;;;;;;;;;;5051011;28;21138;-79
2021/06/01 11:11:32;;;;;;;2.90;2.30;;;;;;;;;;5072730;28;20445;-75
2021/06/01 11:14:01;;;;;;;2.93;2.20;;;;;;;;;;5073583;28;20977;-79
2021/06/01 11:16:43;;;;;;;2.10;1.90;;;;;;;;;;5072795;28;20446;-79
2021/06/01 11:19:13;;;;;;;2.37;2.17;;;;;;;;;;5073020;28;20452;-76
2021/06/01 11:21:55;;;;;;;2.73;2.50;;;;;;;;;;5073049;28;20441;-78
2021/06/01 11:35:31;;;;;;;7.43;2.40;;;;;;;;;;5068742;28;21112;-78
2021/06/01 11:38:03;;;;;;;4.20;1.90;;;;;;;;;;5072811;28;20991;-78
2021/06/01 11:40:35;;;;;;;2.90;2.20;;;;;;;;;;5072502;28;21035;-78
2021/06/01 11:43:02;;;;;;;3.67;2.60;;;;;;;;;;5072630;28;20491;-78
2021/06/01 11:45:41;;;;;;;2.43;2.23;;;;;;;;;;5071593;28;21345;-78
2021/06/01 11:48:13;;;;;;;2.57;2.37;;;;;;;;;;5072849;28;20425;-78
2021/06/01 11:50:59;;;;;;;3.50;2.60;;;;;;;;;;5072850;28;20460;-78
2021/06/01 11:53:25;;;;;;;3.23;2.37;;;;;;;;;;5059257;28;20578;-77
2021/06/01 11:56:02;;;;;;;3.37;2.10;;;;;;;;;;5052373;28;20489;-77
2021/06/01 12:04:03;;;;;;;3.90;2.57;;;;;;;;;;5051508;28;20485;-78
2021/06/01 12:12:06;;;;;;;3.27;2.10;;;;;;;;;;5051726;28;20469;-77
2021/06/01 12:17:46;;;;;;;1.80;1.70;;;;;;;;;;5051613;28;20960;-77
2021/06/01 12:20:14;;;;;;;4.87;2.17;;;;;;;;;;5051661;28;20538;-78
2021/06/01 12:22:40;;;;;;;4.13;2.63;;;;;;;;;;5052012;28;20851;-77
2021/06/01 12:25:11;;;;;;;3.90;3.60;;;;;;;;;;5051550;28;21013;-77
2021/06/01 12:27:53;;;;;;;5.47;3.10;;;;;;;;;;5051865;28;20957;-76
2021/06/01 12:33:10;;;;;;;2.67;2.47;;;;;;;;;;5051340;28;20480;-77
2021/06/01 12:36:05;;;;;;;4.87;3.87;;;;;;;;;;5062898;28;20450;-77
2021/06/01 12:44:21;;;;;;;2.73;2.53;;;;;;;;;;5059920;28;20509;-77
2021/06/01 12:47:06;;;;;;;4.93;2.90;;;;;;;;;;5071410;28;20449;-77
2021/06/01 13:12:29;;;;;;;3.90;2.43;;;;;;;;;;5070959;28;20781;-77
2021/06/01 13:20:48;;;;;;;3.83;3.00;;;;;;;;;;5070830;28;20775;-77
2021/06/01 13:37:22;;;;;;;2.83;2.37;;;;;;;;;;5070979;28;20506;-77
2021/06/01 13:39:54;;;;;;;4.10;2.07;;;;;;;;;;5065362;28;20444;-77
2021/06/01 13:47:59;;;;;;;3.80;2.33;;;;;;;;;;5050972;28;20630;-78
2021/06/01 13:50:42;;;;;;;2.80;2.60;;;;;;;;;;5050394;28;20442;-78
2021/06/01 13:55:56;;;;;;;6.10;3.03;;;;;;;;;;5054935;28;20449;-78
2021/06/01 13:58:37;;;;;;;6.43;2.40;;;;;;;;;;5070094;28;20454;-79
2021/06/01 14:01:09;;;;;;;2.43;2.00;;;;;;;;;;5061719;28;20542;-78
2021/06/01 14:15:26;;;;;;;3.13;2.23;;;;;;;;;;5008826;28;20436;-78
2021/06/01 14:32:02;;;;;;;9.23;8.38;;;;;;;;;;5053557;28;20662;-78
2021/06/01 15:07:22;;;;;;;2.60;2.40;;;;;;;;;;5054106;28;20233;-78
2021/06/01 15:30:29;;;;;;;3.17;2.75;;;;;;;;;;5053600;28;20203;-79
2021/06/01 15:41:05;;;;;;;3.75;2.90;;;;;;;;;;5055821;28;20715;-79
2021/06/01 15:49:46;;;;;;;2.38;2.17;;;34.60;1.00;;;;;;5055853;28;20554;-79
2021/06/01 15:52:47;;;;;;;2.50;2.30;;;34.50;1.00;;;;;;5056763;28;20210;-79
2021/06/01 15:55:42;;;;;;;2.83;2.63;;;34.50;1.00;;;;;;5055705;28;20203;-80
2021/06/01 16:12:17;;;;;;;2.90;2.70;;;34.40;1.00;;;;;;5072651;28;20198;-79
2021/06/01 16:14:58;;;;;;;3.33;2.65;;;34.00;1.00;;;;;;5073546;28;20213;-79
2021/06/01 16:23:01;;;;;;;6.72;6.18;;;33.20;1.00;;;;;;5072416;28;20202;-79
2021/06/01 16:31:25;;;;;;;3.08;2.55;;;34.10;1.00;;;;;;5072026;28;20332;-79
2021/06/01 16:42:27;;;;;;;2.47;2.28;;;32.20;1.00;;;;;;5071690;28;20205;-79
2021/06/01 17:04:30;;;;;;;3.08;2.88;;;32.40;1.00;;;;;;5051795;28;20218;-77
2021/06/01 17:07:04;;;;;;;2.85;2.38;;;32.20;1.00;;;;;;5051445;28;20203;-79
2021/06/01 17:12:27;;;;;;;3.58;3.08;;;32.30;1.00;;;;;;5050451;28;20257;-79
2021/06/01 17:14:56;;;;;;;4.97;2.50;;;32.50;1.00;;;;;;5051310;28;20222;-79
2021/06/01 17:17:26;;;;;;;4.32;2.60;;;32.40;1.00;;;;;;5050598;28;20290;-80
2021/06/01 17:20:15;;;;;;;2.80;2.60;;;32.70;1.00;;;;;;5051067;28;20209;-81
2021/06/01 17:23:10;;;;;;;9.10;2.65;;;32.80;1.00;;;;;;5051493;28;20288;-81
2021/06/01 17:31:25;;;;;;;3.08;2.40;;;32.70;1.00;;;;;;5050799;28;20206;-80
2021/06/01 17:36:38;;;;;;;5.65;2.60;;;32.40;1.00;;;;;;5050465;28;20205;-80
2021/06/01 17:39:05;;;;;;;5.57;3.15;;;32.20;1.00;;;;;;5051291;28;20582;-80
2021/06/01 17:41:35;;;;;;;4.10;2.90;;;31.90;1.00;;;;;;5050346;28;20202;-80
2021/06/01 17:44:03;;;;;;;2.83;2.63;;;;;;;;;;5051165;28;20295;-80
2021/06/01 17:46:33;;;;;;;2.78;2.58;;;;;;;;;;5050479;28;20290;-80
2021/06/01 17:49:01;;;;;;;2.70;2.50;;;;;;;;;;5050813;28;20282;-81
2021/06/01 17:51:28;;;;;;;4.57;2.47;;;;;;;;;;5050156;28;20223;-80
2021/06/01 17:53:56;;;;;;;3.58;3.00;;;;;;;;;;5050534;28;20276;-80
2021/06/01 17:56:24;;;;;;;3.83;3.53;;;;;;;;;;5050330;28;20219;-80
2021/06/01 17:58:51;;;;;;;4.68;3.30;;;;;;;;;;5050658;28;20211;-79
2021/06/01 18:01:19;;;;;;;4.68;2.42;;;;;;;;;;5050000;28;20203;-76
2021/06/01 18:03:51;;;;;;;2.90;2.70;;;;;;;;;;5053761;28;20207;-80
2021/06/01 18:06:19;;;;;;;3.80;3.50;;;;;;;;;;5054836;28;20450;-80
2021/06/01 18:08:53;;;;;;;4.30;4.00;;;;;;;;;;5054862;28;20441;-80
2021/06/01 19:52:13;;;;;;;5.70;4.03;;;;;;;;;;5075699;28;20467;-78
2021/06/01 19:54:40;;;;;;;4.53;3.43;;;;;;;;;;5055582;28;20792;-78
2021/06/01 19:57:07;;;;;;;5.33;3.70;;;;;;;;;;5055261;28;20451;-78
2021/06/01 19:59:35;;;;;;;4.70;2.97;;;;;;;;;;5053639;28;20534;-78
2021/06/01 20:02:02;;;;;;;3.67;2.57;;;;;;;;;;5054732;28;20536;-75
2021/06/01 20:04:29;;;;;;;3.23;2.70;;;;;;;;;;5053818;28;20493;-79
2021/06/01 20:06:56;;;;;;;6.47;3.60;;;;;;;;;;5054023;28;20458;-77
2021/06/01 20:09:23;;;;;;;4.00;3.33;;;;;;;;;;5053155;28;20488;-78
2021/06/01 20:11:50;;;;;;;5.13;3.37;;;;;;;;;;5052968;28;20438;-77
2021/06/01 20:14:17;;;;;;;4.60;3.20;;;;;;;;;;5053020;28;20450;-76
2021/06/01 20:16:48;;;;;;;4.80;3.00;;;;;;;;;;5053293;28;20489;-77
2021/06/01 20:19:16;;;;;;;2.93;2.70;;;;;;;;;;5053105;28;20442;-74
2021/06/01 20:21:45;;;;;;;3.13;2.83;;;;;;;;;;5052039;28;20535;-77
2021/06/01 20:24:15;;;;;;;3.00;2.63;;;;;;;;;;5052304;28;20453;-76
2021/06/01 20:26:43;;;;;;;3.00;2.70;;;;;;;;;;5051826;28;20442;-76
2021/06/01 20:29:12;;;;;;;4.63;3.00;;;;;;;;;;5053038;28;20494;-79
2021/06/01 20:31:40;;;;;;;3.70;3.37;;;;;;;;;;5051237;28;20540;-78
2021/06/01 20:34:08;;;;;;;4.13;2.90;;;;;;;;;;5052090;28;20465;-76
2021/06/01 20:36:35;;;;;;;3.50;3.17;;;;;;;;;;5051732;28;20486;-76
2021/06/01 20:39:05;;;;;;;3.37;2.80;;;;;;;;;;5052094;28;20542;-77
2021/06/01 20:41:32;;;;;;;3.83;3.50;;;;;;;;;;5051127;28;20447;-77
2021/06/01 20:43:59;;;;;;;9.37;7.33;;;;;;;;;;5052202;28;20824;-76
2021/06/01 20:46:26;;;;;;;5.17;3.00;;;;;;;;;;5051741;28;20529;-77
2021/06/01 20:48:53;;;;;;;4.87;3.00;;;;;;;;;;5052259;28;20530;-77
2021/06/01 20:51:21;;;;;;;5.70;3.20;;;;;;;;;;5051346;28;20463;-76
2021/06/01 20:53:48;;;;;;;3.33;2.80;;;;;;;;;;5052029;28;20492;-77
2021/06/01 20:56:15;;;;;;;4.00;3.33;;;;;;;;;;5052102;28;20512;-78
2021/06/01 20:58:42;;;;;;;4.53;3.33;;;;;;;;;;5052161;28;20442;-77
2021/06/01 21:01:09;;;;;;;3.17;2.83;;;;;;;;;;5050913;28;20879;-78
2021/06/01 21:03:36;;;;;;;4.30;3.10;;;;;;;;;;5051208;28;20873;-78
2021/06/01 21:06:03;;;;;;;4.80;2.63;;;;;;;;;;5051950;28;20446;-78
2021/06/01 21:08:32;;;;;;;6.03;3.40;;;;;;;;;;5051167;28;20446;-79
2021/06/01 21:11:01;;;;;;;6.40;3.50;;;;;;;;;;5051240;28;20451;-78
2021/06/01 21:13:28;;;;;;;4.30;3.07;;;;;;;;;;5051312;28;20529;-78
2021/06/01 21:15:54;;;;;;;4.00;2.93;;;;;;;;;;5051805;28;20532;-78
2021/06/01 21:18:21;;;;;;;3.73;2.97;;;;;;;;;;5050665;28;20454;-76